Time;durP1;ratioP1;P1;durP2;ratioP2;P2;SDS_P1;SDS_P2;PMS_P1;PMS_P2;Temp;Humidity;BMP_temperature;BMP_pressure;BME280_temperature;BME280_humidity;BME280_pressure;Samples;Min_cycle;Max_cycle;Signal;HPM_P1;HPM_P2
2022/12/30 00:01:18;;;;;;;32.83;15.88;;;;;;;8.65;100.00;101303.06;5053147;28;20057;-63
2022/12/30 00:03:48;;;;;;;26.52;14.20;;;;;;;8.73;100.00;101305.34;5052366;28;20477;-63
2022/12/30 00:06:20;;;;;;;25.45;15.45;;;;;;;8.76;100.00;101304.03;5052452;28;20061;-63
2022/12/30 00:08:53;;;;;;;28.85;16.27;;;;;;;8.88;100.00;101302.03;5052377;28;20053;-63
2022/12/30 00:11:30;;;;;;;27.50;15.00;;;;;;;8.75;100.00;101292.28;5052450;28;20053;-63
2022/12/30 00:34:01;;;;;;;28.27;14.93;;;;;;;8.67;100.00;101300.91;5051941;28;20064;-63
2022/12/30 00:36:30;;;;;;;25.10;14.25;;;;;;;8.66;100.00;101294.59;5054697;28;20045;-64
2022/12/30 00:38:58;;;;;;;28.98;14.77;;;;;;;8.42;100.00;101296.66;5055890;28;20491;-63
2022/12/30 00:44:12;;;;;;;28.30;15.27;;;;;;;8.54;100.00;101308.34;5054818;28;20049;-63
2022/12/30 00:46:41;;;;;;;32.88;16.65;;;;;;;8.53;100.00;101314.88;5055647;28;20044;-63
2022/12/30 00:57:31;;;;;;;31.00;15.15;;;;;;;8.60;100.00;101288.25;5055836;28;20052;-63
2022/12/30 00:59:59;;;;;;;28.20;15.65;;;;;;;8.70;100.00;101278.59;5055605;28;20492;-63
2022/12/30 01:02:27;;;;;;;30.00;15.38;;;;;;;8.75;100.00;101292.28;5055725;28;20048;-63
2022/12/30 01:04:55;;;;;;;27.50;14.80;;;;;;;8.83;100.00;101286.41;5055612;28;20415;-63
2022/12/30 01:07:23;;;;;;;24.98;14.20;;;;;;;8.66;100.00;101282.88;5055546;28;20399;-63
2022/12/30 01:09:51;;;;;;;27.33;15.70;;;;;;;8.69;100.00;101279.63;5055445;28;20431;-63
2022/12/30 01:12:19;;;;;;;26.48;14.43;;;;;;;8.69;100.00;101276.91;5055211;28;20056;-63
2022/12/30 01:14:49;;;;;;;24.85;13.82;;;;;;;8.66;100.00;101283.69;5055893;28;20408;-63
2022/12/30 01:17:22;;;;;;;27.58;15.00;;;;;;;8.43;100.00;101279.22;5055354;28;20049;-63
2022/12/30 01:19:49;;;;;;;25.10;14.10;;;;;;;8.52;100.00;101264.13;5055216;28;20484;-63
2022/12/30 01:22:17;;;;;;;25.27;14.55;;;;;;;8.50;100.00;101268.97;5055234;28;20052;-63
2022/12/30 01:24:45;;;;;;;25.65;13.82;;;;;;;8.38;100.00;101262.75;5055419;28;20060;-64
2022/12/30 01:27:13;;;;;;;24.65;14.10;;;;;;;8.40;100.00;101264.16;5054812;28;20052;-63
2022/12/30 01:29:43;;;;;;;27.42;14.25;;;;;;;8.43;100.00;101268.31;5054909;28;20052;-63
2022/12/30 01:32:16;;;;;;;24.60;14.60;;;;;;;8.41;100.00;101265.00;5055059;28;20041;-63
2022/12/30 01:34:45;;;;;;;25.58;13.68;;;;;;;8.47;100.00;101269.47;5055263;28;20064;-63
2022/12/30 01:37:14;;;;;;;25.30;15.02;;;;;;;8.50;100.00;101263.50;5054783;28;20423;-63
2022/12/30 01:39:42;;;;;;;26.50;12.93;;;;;;;8.61;100.00;101253.63;5055073;28;20045;-63
2022/12/30 01:42:24;;;;;;;23.58;13.20;;;;;;;8.57;100.00;101253.28;5055006;28;20056;-63
2022/12/30 01:44:59;;;;;;;23.13;14.02;;;;;;;8.60;100.00;101252.78;5054692;28;20159;-63
2022/12/30 01:47:47;;;;;;;22.85;13.02;;;;;;;8.44;100.00;101242.69;5053251;28;20507;-63
2022/12/30 01:50:20;;;;;;;23.55;13.05;;;;;;;8.51;100.00;101246.06;5055076;28;20056;-64
2022/12/30 01:52:48;;;;;;;22.48;13.90;;;;;;;8.52;100.00;101252.38;5054474;28;20439;-64
2022/12/30 01:55:29;;;;;;;21.95;12.93;;;;;;;8.56;100.00;101246.16;5054927;28;20396;-63
2022/12/30 01:58:00;;;;;;;23.00;13.27;;;;;;;8.66;100.00;101247.41;5054358;28;20694;-63
2022/12/30 02:00:28;;;;;;;21.50;12.35;;;;;;;8.70;100.00;101252.09;5054341;28;20496;-63
2022/12/30 02:02:57;;;;;;;17.60;11.50;;;;;;;8.72;100.00;101251.88;5054416;28;20045;-63
2022/12/30 02:05:29;;;;;;;24.33;13.10;;;;;;;8.76;100.00;101252.19;5054359;28;20400;-63
2022/12/30 02:08:20;;;;;;;20.88;11.93;;;;;;;8.80;100.00;101245.16;5054908;28;20396;-63
2022/12/30 02:10:52;;;;;;;23.88;12.02;;;;;;;8.53;100.00;101254.03;5054551;28;20064;-63
2022/12/30 02:13:20;;;;;;;19.77;11.55;;;;;;;8.53;100.00;101243.94;5054100;28;20080;-63
2022/12/30 02:16:04;;;;;;;20.00;12.43;;;;;;;8.48;100.00;101249.28;5054366;28;20400;-63
2022/12/30 02:18:52;;;;;;;20.83;11.43;;;;;;;8.30;100.00;101243.03;5054009;28;20045;-63
2022/12/30 02:21:38;;;;;;;18.13;10.77;;;;;;;8.30;100.00;101251.19;5053809;28;20049;-63
2022/12/30 02:24:25;;;;;;;20.00;12.10;;;;;;;8.45;100.00;101247.06;5053734;28;20057;-63
2022/12/30 02:27:05;;;;;;;19.13;11.57;;;;;;;8.46;100.00;101237.81;5053814;28;20053;-63
2022/12/30 02:29:39;;;;;;;21.98;12.00;;;;;;;8.49;100.00;101223.66;5053935;28;20475;-63
2022/12/30 02:32:25;;;;;;;19.08;11.25;;;;;;;8.39;100.00;101228.97;5053922;28;20041;-63
2022/12/30 02:35:02;;;;;;;22.20;12.60;;;;;;;8.14;100.00;101233.78;5053862;28;20053;-63
2022/12/30 02:37:45;;;;;;;20.70;11.63;;;;;;;8.33;100.00;101237.06;5053940;28;20056;-63
2022/12/30 02:40:16;;;;;;;18.85;11.55;;;;;;;8.47;100.00;101237.53;5054064;28;20049;-63
2022/12/30 02:45:52;;;;;;;20.63;11.57;;;;;;;8.46;100.00;101248.72;5053579;28;20045;-63
2022/12/30 02:48:28;;;;;;;21.52;11.73;;;;;;;8.47;100.00;101253.09;5053664;28;20486;-63
2022/12/30 02:53:45;;;;;;;19.13;11.25;;;;;;;8.52;100.00;101253.22;5053625;28;20045;-63
2022/12/30 02:56:12;;;;;;;20.27;11.55;;;;;;;8.36;100.00;101254.00;5053589;28;20431;-63
2022/12/30 02:58:50;;;;;;;18.58;11.32;;;;;;;8.42;100.00;101250.28;5052754;28;20044;-64
2022/12/30 03:04:26;;;;;;;19.90;10.82;;;;;;;8.49;100.00;101250.94;5053340;28;20048;-63
2022/12/30 03:07:27;;;;;;;20.65;11.18;;;;;;;8.64;100.00;101246.84;5053510;28;20053;-63
2022/12/30 03:13:06;;;;;;;17.95;10.38;;;;;;;8.64;100.00;101255.84;5053195;28;20514;-63
2022/12/30 03:15:48;;;;;;;20.00;11.25;;;;;;;8.62;100.00;101238.06;5053211;28;20053;-63
2022/12/30 03:18:18;;;;;;;19.23;10.43;;;;;;;8.42;100.00;101229.28;5053115;28;20060;-64
2022/12/30 03:20:47;;;;;;;15.27;9.70;;;;;;;8.49;100.00;101242.75;5052798;28;20053;-63
2022/12/30 03:28:51;;;;;;;19.08;10.48;;;;;;;8.40;100.00;101231.44;5052864;28;20049;-63
2022/12/30 03:31:20;;;;;;;15.85;10.02;;;;;;;8.36;100.00;101240.38;5052729;28;20084;-64
2022/12/30 03:33:49;;;;;;;18.45;10.18;;;;;;;8.46;100.00;101235.09;5052857;28;20056;-64
2022/12/30 03:36:23;;;;;;;18.73;10.55;;;;;;;8.42;100.00;101240.19;5053013;28;20060;-64
2022/12/30 03:39:09;;;;;;;16.02;10.05;;;;;;;8.51;100.00;101243.31;5052408;28;20048;-63
2022/12/30 03:41:38;;;;;;;18.10;10.50;;;;;;;8.50;100.00;101243.59;5052264;28;20071;-63
2022/12/30 03:44:08;;;;;;;14.80;9.50;;;;;;;8.38;100.00;101232.75;5052275;28;20045;-63
2022/12/30 03:46:40;;;;;;;13.48;8.88;;;;;;;8.38;100.00;101232.75;5051031;28;20053;-63
2022/12/30 03:49:08;;;;;;;15.63;10.23;;;;;;;8.38;100.00;101227.31;5052420;28;20396;-63
2022/12/30 03:51:36;;;;;;;16.58;9.45;;;;;;;8.41;100.00;101227.63;5052114;28;20072;-63
2022/12/30 03:54:04;;;;;;;14.43;9.00;;;;;;;8.36;100.00;101229.47;5052430;28;20049;-63
2022/12/30 03:56:32;;;;;;;14.98;9.38;;;;;;;8.38;100.00;101219.13;5052509;28;20489;-63
2022/12/30 03:59:00;;;;;;;15.20;9.48;;;;;;;8.36;100.00;101219.38;5052101;28;20071;-63
2022/12/30 04:01:28;;;;;;;16.33;9.27;;;;;;;8.39;100.00;101218.88;5050579;28;20045;-63
2022/12/30 04:03:56;;;;;;;17.77;8.80;;;;;;;8.45;100.00;101222.50;5052076;28;20041;-63
2022/12/30 04:06:24;;;;;;;14.80;9.02;;;;;;;8.53;100.00;101219.41;5052535;28;20373;-63
2022/12/30 04:08:51;;;;;;;13.77;8.75;;;;;;;8.51;100.00;101221.50;5052014;28;20045;-63
2022/12/30 04:11:19;;;;;;;17.17;9.80;;;;;;;8.54;100.00;101229.22;5051166;28;20057;-63
2022/12/30 04:13:47;;;;;;;13.90;8.65;;;;;;;8.52;100.00;101223.22;5052226;28;20052;-63
2022/12/30 04:16:15;;;;;;;14.30;8.48;;;;;;;8.52;100.00;101209.56;5052300;28;20060;-63
2022/12/30 04:18:43;;;;;;;14.80;9.93;;;;;;;8.55;100.00;101209.06;5052114;28;20052;-63
2022/12/30 04:21:11;;;;;;;14.20;9.25;;;;;;;8.54;100.00;101210.13;5051905;28;20045;-63
2022/12/30 04:23:39;;;;;;;13.57;8.45;;;;;;;8.49;100.00;101214.69;5052259;28;20061;-63
2022/12/30 04:26:07;;;;;;;13.43;8.85;;;;;;;8.49;100.00;101218.22;5051921;28;20049;-63
2022/12/30 04:28:35;;;;;;;13.10;8.77;;;;;;;8.54;100.00;101215.59;5052188;28;20045;-63
2022/12/30 04:31:03;;;;;;;15.80;9.40;;;;;;;8.30;100.00;101210.28;5052290;28;20056;-63
2022/12/30 04:33:31;;;;;;;15.38;8.50;;;;;;;8.28;100.00;101214.34;5051755;28;20063;-63
2022/12/30 04:35:59;;;;;;;15.43;8.88;;;;;;;8.41;100.00;101208.53;5051765;28;20041;-63
2022/12/30 04:38:27;;;;;;;18.15;9.43;;;;;;;8.45;100.00;101206.97;5052501;28;20392;-63
2022/12/30 04:40:55;;;;;;;15.77;9.40;;;;;;;8.44;100.00;101220.84;5052126;28;20056;-63
2022/12/30 04:43:23;;;;;;;13.63;8.80;;;;;;;8.50;100.00;101219.84;5051797;28;20037;-63
2022/12/30 04:45:51;;;;;;;14.60;8.88;;;;;;;8.47;100.00;101220.38;5051564;28;20048;-63
2022/12/30 04:48:19;;;;;;;17.70;9.75;;;;;;;8.51;100.00;101221.50;5051943;28;20053;-63
2022/12/30 04:50:48;;;;;;;17.73;10.60;;;;;;;8.60;100.00;101213.75;5052016;28;20053;-63
2022/12/30 04:53:16;;;;;;;16.33;10.15;;;;;;;8.66;100.00;101226.38;5051720;28;20503;-63
2022/12/30 04:55:44;;;;;;;16.23;9.45;;;;;;;8.71;100.00;101228.38;5051449;28;20049;-63
2022/12/30 04:58:12;;;;;;;16.45;10.32;;;;;;;8.80;100.00;101223.31;5051904;28;20064;-63
2022/12/30 05:00:39;;;;;;;14.32;9.85;;;;;;;8.73;100.00;101218.88;5051337;28;20057;-63
2022/12/30 05:03:07;;;;;;;15.93;9.93;;;;;;;8.75;100.00;101224.06;5051319;28;20037;-63
2022/12/30 05:05:35;;;;;;;16.77;9.23;;;;;;;8.66;100.00;101229.13;5051577;28;20049;-63
2022/12/30 05:08:03;;;;;;;17.73;9.43;;;;;;;8.72;100.00;101232.75;5051866;28;20052;-63
2022/12/30 05:10:35;;;;;;;13.65;9.25;;;;;;;8.81;100.00;101231.22;5051491;28;20041;-63
2022/12/30 05:13:03;;;;;;;12.07;8.90;;;;;;;8.74;100.00;101230.59;5051318;28;20049;-63
2022/12/30 05:15:32;;;;;;;13.48;9.10;;;;;;;8.74;100.00;101238.78;5052092;28;20060;-63
2022/12/30 05:18:00;;;;;;;13.65;9.10;;;;;;;8.69;100.00;101238.69;5051611;28;20049;-63
2022/12/30 05:20:28;;;;;;;12.07;8.27;;;;;;;8.64;100.00;101239.47;5051622;28;20064;-63
2022/12/30 05:22:55;;;;;;;12.77;8.40;;;;;;;8.54;100.00;101242.03;5055109;28;20399;-63
2022/12/30 05:28:10;;;;;;;14.25;9.45;;;;;;;8.52;100.00;101245.03;5055028;28;20064;-63
2022/12/30 05:30:38;;;;;;;13.60;8.18;;;;;;;8.50;100.00;101241.69;5055346;28;20053;-64
2022/12/30 05:33:05;;;;;;;15.65;9.05;;;;;;;8.51;100.00;101246.06;5054964;28;20045;-63
2022/12/30 05:35:33;;;;;;;16.00;8.77;;;;;;;8.44;100.00;101261.78;5055106;28;20045;-63
2022/12/30 05:38:01;;;;;;;12.25;9.00;;;;;;;8.14;100.00;101262.91;5055151;28;20056;-63
2022/12/30 05:40:29;;;;;;;16.05;10.65;;;;;;;8.19;100.00;101257.56;5054773;28;20053;-63
2022/12/30 05:42:57;;;;;;;14.68;9.77;;;;;;;8.31;100.00;101255.56;5054577;28;20515;-63
2022/12/30 05:45:25;;;;;;;17.75;9.57;;;;;;;8.32;100.00;101270.84;5054770;28;20053;-63
2022/12/30 05:47:53;;;;;;;15.82;10.15;;;;;;;8.28;100.00;101264.28;5054600;28;20045;-63
2022/12/30 05:50:20;;;;;;;19.30;10.38;;;;;;;8.43;100.00;101263.69;5054969;28;20080;-63
2022/12/30 05:52:48;;;;;;;16.88;10.10;;;;;;;8.44;100.00;101264.50;5053230;28;20496;-63
2022/12/30 05:55:16;;;;;;;16.17;10.75;;;;;;;8.41;100.00;101254.91;5054961;28;20400;-63
2022/12/30 05:57:44;;;;;;;17.05;10.25;;;;;;;8.47;100.00;101247.66;5054709;28;20056;-63
2022/12/30 06:00:12;;;;;;;15.70;10.20;;;;;;;8.33;100.00;101241.69;5054206;28;20415;-63
2022/12/30 06:02:40;;;;;;;19.08;10.95;;;;;;;8.33;100.00;101239.78;5054109;28;20057;-63
2022/12/30 06:05:09;;;;;;;16.20;10.55;;;;;;;8.59;100.00;101240.22;5054316;28;20053;-64
2022/12/30 06:07:37;;;;;;;17.98;9.77;;;;;;;8.65;100.00;101243.84;5054226;28;20052;-64
2022/12/30 06:10:05;;;;;;;17.17;11.20;;;;;;;8.74;100.00;101253.25;5054439;28;20061;-63
2022/12/30 06:12:33;;;;;;;16.95;10.27;;;;;;;8.73;100.00;101250.78;5054159;28;20402;-63
2022/12/30 06:15:01;;;;;;;19.02;11.18;;;;;;;8.78;100.00;101253.59;5054074;28;20388;-63
2022/12/30 06:17:29;;;;;;;17.83;10.50;;;;;;;8.65;100.00;101248.50;5054305;28;20060;-64
2022/12/30 06:19:57;;;;;;;17.20;10.20;;;;;;;8.56;100.00;101253.53;5053966;28;20602;-63
2022/12/30 06:22:25;;;;;;;15.60;10.07;;;;;;;8.59;100.00;101255.75;5053809;28;20407;-63
2022/12/30 06:24:53;;;;;;;16.65;10.20;;;;;;;8.53;100.00;101260.31;5053832;28;20052;-64
2022/12/30 06:27:21;;;;;;;15.90;10.52;;;;;;;8.52;100.00;101264.13;5053951;28;20075;-64
2022/12/30 06:29:49;;;;;;;17.75;10.38;;;;;;;8.49;100.00;101267.31;5054075;28;20045;-63
2022/12/30 06:32:17;;;;;;;14.15;9.70;;;;;;;8.42;100.00;101275.66;5053512;28;20079;-63
2022/12/30 06:34:45;;;;;;;15.90;10.32;;;;;;;8.39;100.00;101276.16;5053622;28;20045;-63
2022/12/30 06:37:12;;;;;;;18.30;11.65;;;;;;;8.45;100.00;101282.50;5054000;28;20045;-63
2022/12/30 06:39:40;;;;;;;16.20;10.00;;;;;;;8.52;100.00;101280.50;5053373;28;20063;-63
2022/12/30 06:42:08;;;;;;;16.10;10.63;;;;;;;8.45;100.00;101279.78;5054025;28;20076;-63
2022/12/30 06:44:36;;;;;;;16.63;9.50;;;;;;;8.49;100.00;101285.59;5053277;28;20063;-63
2022/12/30 06:47:04;;;;;;;18.38;10.43;;;;;;;8.54;100.00;101285.69;5053565;28;20055;-63
2022/12/30 06:49:32;;;;;;;17.75;10.93;;;;;;;8.53;100.00;101295.78;5053625;28;20060;-63
2022/12/30 06:52:00;;;;;;;17.25;10.55;;;;;;;8.46;100.00;101312.28;5053182;28;20041;-63
2022/12/30 06:54:27;;;;;;;20.30;11.30;;;;;;;8.26;100.00;101312.75;5053328;28;20033;-63
2022/12/30 06:56:55;;;;;;;21.13;10.80;;;;;;;8.34;100.00;101319.72;5053114;28;20045;-63
2022/12/30 06:59:23;;;;;;;21.65;11.25;;;;;;;8.39;100.00;101322.53;5053139;28;20392;-63
2022/12/30 07:01:51;;;;;;;21.23;11.88;;;;;;;8.46;100.00;101319.66;5053307;28;20529;-63
2022/12/30 07:04:19;;;;;;;20.17;10.95;;;;;;;8.42;100.00;101319.28;5052994;28;20071;-63
2022/12/30 07:06:47;;;;;;;20.90;10.75;;;;;;;8.42;100.00;101323.94;5052810;28;20499;-63
2022/12/30 07:09:15;;;;;;;17.45;10.73;;;;;;;8.45;100.00;101320.69;5053515;28;20045;-63
2022/12/30 07:11:43;;;;;;;18.58;10.68;;;;;;;8.42;100.00;101318.47;5052909;28;20051;-63
2022/12/30 07:14:11;;;;;;;20.08;11.82;;;;;;;8.39;100.00;101316.22;5052870;28;20045;-63
2022/12/30 07:16:39;;;;;;;17.13;11.25;;;;;;;8.40;100.00;101313.25;5053141;28;20489;-63
2022/12/30 07:19:07;;;;;;;20.33;11.80;;;;;;;8.50;100.00;101317.25;5052776;28;20056;-63
2022/12/30 07:21:35;;;;;;;18.10;10.93;;;;;;;8.44;100.00;101333.53;5053029;28;20400;-63
2022/12/30 07:24:03;;;;;;;21.92;11.38;;;;;;;8.25;100.00;101338.38;5052878;28;20044;-63
2022/12/30 07:26:31;;;;;;;19.65;11.20;;;;;;;8.19;100.00;101331.19;5053052;28;20068;-63
2022/12/30 07:28:59;;;;;;;22.25;11.82;;;;;;;8.33;100.00;101350.78;5053096;28;20049;-64
2022/12/30 07:31:27;;;;;;;17.95;11.15;;;;;;;8.38;100.00;101363.69;5052529;28;20049;-63
2022/12/30 07:33:55;;;;;;;18.30;11.35;;;;;;;8.50;100.00;101361.72;5052704;28;20049;-64
2022/12/30 07:36:23;;;;;;;19.85;11.13;;;;;;;8.50;100.00;101366.34;5052859;28;20404;-63
2022/12/30 07:38:50;;;;;;;17.70;10.80;;;;;;;8.58;100.00;101361.34;5052403;28;20385;-63
2022/12/30 07:41:18;;;;;;;20.88;11.35;;;;;;;8.70;100.00;101365.91;5052448;28;20052;-63
2022/12/30 07:43:46;;;;;;;19.60;11.57;;;;;;;8.73;100.00;101362.66;5052939;28;20400;-64
2022/12/30 07:46:14;;;;;;;19.17;10.98;;;;;;;8.65;100.00;101363.09;5051854;28;20056;-63
2022/12/30 07:48:42;;;;;;;20.20;11.38;;;;;;;8.64;100.00;101361.44;5052232;28;20049;-63
2022/12/30 07:51:13;;;;;;;20.35;12.15;;;;;;;8.89;100.00;101352.00;5052222;28;20045;-63
2022/12/30 07:53:42;;;;;;;20.40;12.82;;;;;;;8.95;100.00;101351.00;5052196;28;20052;-63
2022/12/30 07:56:12;;;;;;;22.40;11.63;;;;;;;8.95;100.00;101357.28;5052229;28;20052;-64
2022/12/30 07:58:40;;;;;;;24.02;13.27;;;;;;;8.93;100.00;101364.06;5051925;28;20053;-64
2022/12/30 08:01:11;;;;;;;21.45;13.02;;;;;;;8.93;100.00;101367.63;5052643;28;20044;-64
2022/12/30 08:03:40;;;;;;;20.75;11.75;;;;;;;8.96;100.00;101363.56;5052223;28;20045;-64
2022/12/30 08:06:12;;;;;;;21.10;12.20;;;;;;;8.83;100.00;101359.25;5051731;28;20072;-63
2022/12/30 08:08:40;;;;;;;23.40;13.38;;;;;;;8.96;100.00;101360.84;5051985;28;20041;-64
2022/12/30 08:11:10;;;;;;;18.08;10.93;;;;;;;8.92;100.00;101365.13;5051847;28;20052;-63
2022/12/30 08:13:41;;;;;;;19.98;12.18;;;;;;;9.01;100.00;101375.38;5052346;28;20048;-64
2022/12/30 08:16:14;;;;;;;19.63;12.65;;;;;;;9.20;100.00;101386.06;5052141;28;20047;-63
2022/12/30 08:18:42;;;;;;;19.00;12.70;;;;;;;9.27;100.00;101383.97;5052678;28;20053;-64
2022/12/30 08:21:13;;;;;;;23.38;14.65;;;;;;;9.25;100.00;101394.31;5052260;28;20056;-63
2022/12/30 08:23:44;;;;;;;26.10;15.73;;;;;;;9.28;100.00;101393.81;5052205;28;20049;-63
2022/12/30 08:26:21;;;;;;;37.08;22.17;;;;;;;9.13;100.00;101391.69;5051656;28;20053;-64
2022/12/30 08:28:50;;;;;;;22.55;13.35;;;;;;;9.25;100.00;101398.94;5051923;28;20055;-63
2022/12/30 08:31:20;;;;;;;23.50;14.10;;;;;;;9.43;100.00;101400.56;5052293;28;20361;-64
2022/12/30 08:33:48;;;;;;;23.85;13.73;;;;;;;9.19;100.00;101408.97;5051919;28;20037;-63
2022/12/30 08:36:20;;;;;;;29.30;15.98;;;;;;;9.07;100.00;101402.75;5052071;28;20049;-64
2022/12/30 08:38:51;;;;;;;26.02;13.32;;;;;;;9.05;100.00;101400.28;5051628;28;20056;-64
2022/12/30 08:41:25;;;;;;;21.08;12.55;;;;;;;8.96;100.00;101407.25;5051931;28;20124;-63
2022/12/30 08:43:57;;;;;;;27.48;17.08;;;;;;;9.10;100.00;101416.75;5051553;28;20404;-63
2022/12/30 08:46:27;;;;;;;28.63;15.93;;;;;;;9.13;100.00;101438.09;5051385;28;20060;-63
2022/12/30 08:48:56;;;;;;;29.67;15.52;;;;;;;9.32;100.00;101437.00;5051954;28;20045;-63
2022/12/30 08:51:24;;;;;;;24.20;14.43;;;;;;;9.35;100.00;101442.81;5051573;28;20056;-63
2022/12/30 08:53:52;;;;;;;27.05;13.63;;;;;;;9.14;100.00;101453.41;5051786;28;20061;-63
2022/12/30 08:56:32;;;;;;;23.85;14.48;;;;;;;9.12;100.00;101458.31;5053062;28;20053;-63
2022/12/30 08:59:00;;;;;;;22.35;14.18;;;;;;;9.16;100.00;101455.06;5055563;28;20060;-64
2022/12/30 09:01:40;;;;;;;22.77;12.38;;;;;;;9.18;100.00;101464.66;5055971;28;20060;-63
2022/12/30 09:04:10;;;;;;;25.02;14.02;;;;;;;9.21;100.00;101466.91;5055333;28;20059;-63
2022/12/30 09:06:40;;;;;;;25.52;13.25;;;;;;;9.29;100.00;101468.38;5055349;28;20051;-64
2022/12/30 09:09:11;;;;;;;26.83;14.02;;;;;;;9.31;100.00;101471.69;5055200;28;20400;-64
2022/12/30 09:11:40;;;;;;;26.88;13.85;;;;;;;9.26;100.00;101488.00;5055255;28;20053;-63
2022/12/30 09:14:10;;;;;;;23.17;14.27;;;;;;;9.37;100.00;101488.97;5053935;28;20059;-64
2022/12/30 09:16:38;;;;;;;22.80;13.75;;;;;;;9.33;100.00;101498.78;5053965;28;20059;-63
2022/12/30 09:19:06;;;;;;;21.20;13.43;;;;;;;9.41;100.00;101480.06;5055061;28;20048;-63
2022/12/30 09:21:34;;;;;;;27.92;14.27;;;;;;;9.23;100.00;101488.47;5055133;28;20064;-63
2022/12/30 09:24:03;;;;;;;29.52;15.52;;;;;;;9.37;100.00;101488.97;5055199;28;20492;-63
2022/12/30 09:26:31;;;;;;;27.70;15.60;;;;;;;9.47;100.00;101485.56;5054947;28;20049;-63
2022/12/30 09:28:59;;;;;;;31.85;15.38;;;;;;;9.44;100.00;101494.28;5055081;28;20053;-63
2022/12/30 09:31:27;;;;;;;31.50;16.70;;;;;;;9.47;100.00;101491.03;5054926;28;20412;-63
2022/12/30 09:33:57;;;;;;;29.88;16.25;;;;;;;9.31;100.00;101490.81;5054907;28;20048;-64
2022/12/30 09:36:25;;;;;;;27.85;16.10;;;;;;;9.44;100.00;101495.13;5055000;28;20053;-64
2022/12/30 09:38:53;;;;;;;31.27;15.77;;;;;;;9.57;100.00;101496.66;5054827;28;20049;-64
2022/12/30 09:44:44;;;;;;;29.88;15.20;;;;;;;9.67;100.00;101480.44;5054662;28;20404;-63
2022/12/30 09:47:30;;;;;;;27.33;15.40;;;;;;;9.52;100.00;101469.25;5054596;28;20500;-63
2022/12/30 09:50:05;;;;;;;29.80;15.30;;;;;;;9.85;100.00;101478.47;5054425;28;20071;-64
2022/12/30 09:52:37;;;;;;;27.63;14.75;;;;;;;9.76;100.00;101474.50;5054665;28;20048;-64
2022/12/30 09:55:09;;;;;;;27.13;15.50;;;;;;;9.81;100.00;101482.78;5054653;28;20049;-64
2022/12/30 09:57:37;;;;;;;28.42;15.30;;;;;;;9.85;100.00;101472.16;5054861;28;20064;-64
2022/12/30 10:00:14;;;;;;;27.50;13.63;;;;;;;9.69;100.00;101469.25;5054413;28;20056;-64
2022/12/30 10:03:09;;;;;;;23.33;13.55;;;;;;;9.66;100.00;101475.19;5054680;28;20053;-64
2022/12/30 10:06:15;;;;;;;23.00;13.43;;;;;;;9.72;100.00;101467.91;5054022;28;20049;-64
2022/12/30 10:08:55;;;;;;;26.05;13.82;;;;;;;9.58;100.00;101462.78;5053173;28;20060;-64
2022/12/30 10:12:02;;;;;;;27.65;13.98;;;;;;;9.66;100.00;101456.91;5053250;28;20060;-64
2022/12/30 10:14:54;;;;;;;25.15;13.43;;;;;;;9.64;100.00;101455.50;5053057;28;20052;-64
2022/12/30 10:17:40;;;;;;;23.23;14.15;;;;;;;9.71;100.00;101453.41;5054303;28;20045;-64
2022/12/30 10:20:11;;;;;;;28.25;15.68;;;;;;;9.85;100.00;101458.50;5054267;28;20053;-64
2022/12/30 10:23:02;;;;;;;27.23;14.32;;;;;;;9.89;100.00;101452.28;5053823;28;20052;-64
2022/12/30 10:25:36;;;;;;;28.27;14.40;;;;;;;9.91;100.00;101450.13;5053903;28;20041;-65
2022/12/30 10:28:08;;;;;;;25.63;15.13;;;;;;;9.89;100.00;101446.84;5053709;28;20060;-63
2022/12/30 10:30:40;;;;;;;26.63;14.30;;;;;;;9.70;100.00;101449.03;5053284;28;20041;-63
2022/12/30 10:33:16;;;;;;;30.50;16.63;;;;;;;9.78;100.00;101445.03;5054010;28;20049;-63
2022/12/30 10:35:48;;;;;;;27.23;15.23;;;;;;;9.82;100.00;101446.16;5053723;28;20049;-64
2022/12/30 10:38:30;;;;;;;28.05;15.80;;;;;;;9.78;100.00;101440.38;5053887;28;20048;-64
2022/12/30 10:41:07;;;;;;;28.10;14.70;;;;;;;9.63;100.00;101448.41;5053332;28;20056;-64
2022/12/30 10:43:38;;;;;;;26.88;14.88;;;;;;;9.73;100.00;101442.22;5053528;28;20052;-64
2022/12/30 10:46:24;;;;;;;29.75;15.63;;;;;;;9.82;100.00;101448.91;5053252;28;20412;-64
2022/12/30 10:49:03;;;;;;;27.98;15.20;;;;;;;9.88;100.00;101436.94;5053438;28;20500;-64
2022/12/30 10:51:31;;;;;;;31.50;15.73;;;;;;;9.87;100.00;101438.03;5053375;28;20037;-64
2022/12/30 10:54:00;;;;;;;26.52;14.77;;;;;;;9.65;100.00;101447.06;5053593;28;20060;-64
2022/12/30 10:56:31;;;;;;;29.88;15.25;;;;;;;9.58;100.00;101446.41;5053267;28;20045;-64
2022/12/30 10:59:04;;;;;;;28.92;16.45;;;;;;;9.93;100.00;101439.75;5053421;28;20057;-64
2022/12/30 11:01:35;;;;;;;30.33;16.20;;;;;;;9.94;100.00;101440.59;5053373;28;20488;-64
2022/12/30 11:04:04;;;;;;;27.75;15.85;;;;;;;10.28;100.00;101443.19;5053189;28;20045;-64
2022/12/30 11:06:35;;;;;;;29.33;15.45;;;;;;;10.43;100.00;101445.28;5053103;28;20060;-64
2022/12/30 11:09:12;;;;;;;30.80;14.82;;;;;;;10.44;100.00;101446.94;5053261;28;20044;-64
2022/12/30 11:15:01;;;;;;;26.85;14.85;;;;;;;10.30;100.00;101434.69;5053244;28;20045;-64
2022/12/30 11:17:55;;;;;;;34.53;16.75;;;;;;;10.21;100.00;101426.13;5052761;28;20041;-64
2022/12/30 11:20:39;;;;;;;40.47;19.85;;;;;;;10.32;100.00;101429.81;5052504;28;20064;-64
2022/12/30 11:23:24;;;;;;;33.15;15.68;;;;;;;10.50;100.00;101422.38;5052865;28;20045;-64
2022/12/30 11:25:53;;;;;;;33.75;15.00;;;;;;;10.21;100.00;101426.97;5053117;28;20408;-64
2022/12/30 11:28:26;;;;;;;24.30;13.98;;;;;;;10.32;100.00;101435.28;5052654;28;20492;-64
2022/12/30 11:30:56;;;;;;;30.87;16.30;;;;;;;10.47;100.00;101440.94;5053064;28;20049;-64
2022/12/30 11:33:29;;;;;;;28.75;15.45;;;;;;;10.56;100.00;101437.75;5052391;28;20049;-64
2022/12/30 11:36:19;;;;;;;30.38;15.50;;;;;;;10.77;100.00;101433.28;5053252;28;20041;-64
2022/12/30 11:38:51;;;;;;;27.48;15.00;;;;;;;10.71;100.00;101432.41;5052689;28;20064;-64
2022/12/30 11:41:19;;;;;;;31.23;16.02;;;;;;;10.93;100.00;101441.63;5052236;28;20049;-65
2022/12/30 11:43:50;;;;;;;26.23;13.73;;;;;;;10.68;100.00;101438.41;5052266;28;20041;-64
2022/12/30 11:46:21;;;;;;;26.20;13.77;;;;;;;10.40;100.00;101439.47;5052648;28;20049;-64
2022/12/30 11:48:53;;;;;;;23.60;13.75;;;;;;;10.80;100.00;101438.22;5052423;28;20399;-64
2022/12/30 11:51:27;;;;;;;25.98;13.57;;;;;;;10.60;100.00;101433.38;5052405;28;20380;-64
2022/12/30 11:54:10;;;;;;;25.20;13.25;;;;;;;10.99;100.00;101430.44;5052173;28;20045;-64
2022/12/30 11:56:50;;;;;;;24.38;13.65;;;;;;;10.83;100.00;101426.78;5052346;28;20049;-64
2022/12/30 11:59:22;;;;;;;25.50;14.30;;;;;;;10.97;100.00;101421.69;5052088;28;20052;-64
2022/12/30 12:01:58;;;;;;;23.38;13.52;;;;;;;11.16;100.00;101427.56;5052020;28;20056;-64
2022/12/30 12:04:40;;;;;;;23.77;13.10;;;;;;;11.23;100.00;101424.59;5052036;28;20056;-64
2022/12/30 12:07:16;;;;;;;21.60;12.27;;;;;;;11.01;100.00;101420.06;5051675;28;20052;-64
2022/12/30 12:09:58;;;;;;;21.85;11.90;;;;;;;10.94;100.00;101422.19;5051879;28;20052;-64
2022/12/30 12:12:30;;;;;;;21.10;12.10;;;;;;;11.07;100.00;101425.56;5052006;28;20057;-64
2022/12/30 12:15:15;;;;;;;24.88;12.25;;;;;;;10.95;100.00;101426.56;5051883;28;20045;-64
2022/12/30 12:17:51;;;;;;;19.40;11.88;;;;;;;10.84;100.00;101424.84;5051806;28;20060;-64
2022/12/30 12:20:42;;;;;;;20.15;11.57;;;;;;;10.84;100.00;101419.34;5052007;28;20519;-64
2022/12/30 12:23:25;;;;;;;26.52;13.00;;;;;;;10.93;100.00;101404.13;5051891;28;20053;-64
2022/12/30 12:26:19;;;;;;;20.90;12.30;;;;;;;10.95;100.00;101396.44;5051883;28;20408;-64
2022/12/30 12:28:51;;;;;;;22.30;13.20;;;;;;;11.07;100.00;101396.28;5051533;28;20052;-64